createdAt,value
2018-08-28T00:01:35.234Z,101441.61
2018-08-28T00:04:04.366Z,101449.22
2018-08-28T00:06:36.451Z,101443.61
2018-08-28T00:09:06.030Z,101438.38
2018-08-28T00:11:35.124Z,101446.27
2018-08-28T00:14:04.265Z,101446.27
2018-08-28T00:16:33.336Z,101444.53
2018-08-28T00:19:02.411Z,101444.92
2018-08-28T00:21:31.519Z,101449.42
2018-08-28T00:24:00.602Z,101450.26
2018-08-28T00:26:29.744Z,101448.19
2018-08-28T00:28:58.804Z,101454.36
2018-08-28T00:31:27.931Z,101454.36
2018-08-28T00:33:57.055Z,101454.86
2018-08-28T00:36:26.978Z,101455.14
2018-08-28T00:38:56.051Z,101461.61
2018-08-28T00:41:25.193Z,101460.75
2018-08-28T00:43:54.299Z,101466.27
2018-08-28T00:46:23.390Z,101462.27
2018-08-28T00:48:52.476Z,101465.04
2018-08-28T00:51:21.595Z,101464.54
2018-08-28T00:53:50.770Z,101467.39
2018-08-28T00:56:19.894Z,101466.56
2018-08-28T00:58:49.038Z,101472.17
2018-08-28T01:01:18.135Z,101469.59
2018-08-28T01:03:47.316Z,101474.66
2018-08-28T01:06:16.429Z,101468.19
2018-08-28T01:08:45.515Z,101469.61
2018-08-28T01:11:14.648Z,101474.27
2018-08-28T01:13:43.741Z,101469.49
2018-08-28T01:16:12.901Z,101469.68
2018-08-28T01:18:41.997Z,101473.50
2018-08-28T01:21:11.192Z,101470.59
2018-08-28T01:23:40.283Z,101474.86
2018-08-28T01:26:09.521Z,101474.59
2018-08-28T01:28:38.607Z,101471.70
2018-08-28T01:31:07.788Z,101473.63
2018-08-28T01:33:36.862Z,101480.29
2018-08-28T01:36:05.978Z,101475.52
2018-08-28T01:38:51.652Z,101477.13
2018-08-28T01:41:23.205Z,101473.31
2018-08-28T01:43:52.283Z,101472.63
2018-08-28T01:46:21.420Z,101470.84
2018-08-28T01:48:50.463Z,101475.48
2018-08-28T01:51:19.556Z,101474.33
2018-08-28T01:53:48.661Z,101465.56
2018-08-28T01:56:17.776Z,101469.56
2018-08-28T01:58:46.901Z,101472.41
2018-08-28T02:01:16.003Z,101470.02
2018-08-28T02:03:45.092Z,101475.53
2018-08-28T02:06:14.249Z,101480.39
2018-08-28T02:08:43.343Z,101484.95
2018-08-28T02:11:12.461Z,101482.28
2018-08-28T02:13:41.574Z,101484.95
2018-08-28T02:16:11.216Z,101484.95
2018-08-28T02:18:40.858Z,101484.72
2018-08-28T02:21:10.421Z,101488.72
2018-08-28T02:23:40.032Z,101487.74
2018-08-28T02:26:09.637Z,101482.41
2018-08-28T02:28:39.291Z,101478.19
2018-08-28T02:31:08.435Z,101478.95
2018-08-28T02:33:37.703Z,101481.38
2018-08-28T02:36:07.124Z,101482.52
2018-08-28T02:38:36.222Z,101476.97
2018-08-28T02:41:05.285Z,101481.05
2018-08-28T02:43:34.331Z,101482.27
2018-08-28T02:46:03.464Z,101482.91
2018-08-28T02:48:32.551Z,101477.81
2018-08-28T02:51:01.600Z,101476.28
2018-08-28T02:53:30.700Z,101477.47
2018-08-28T02:55:59.827Z,101481.45
2018-08-28T02:58:28.905Z,101476.14
2018-08-28T03:00:57.986Z,101486.78
2018-08-28T03:03:27.044Z,101484.75
2018-08-28T03:05:56.134Z,101490.74
2018-08-28T03:08:25.249Z,101486.34
2018-08-28T03:10:54.387Z,101488.34
2018-08-28T03:13:23.484Z,101488.52
2018-08-28T03:15:52.671Z,101489.52
2018-08-28T03:18:21.803Z,101489.69
2018-08-28T03:20:50.864Z,101490.23
2018-08-28T03:23:19.919Z,101485.41
2018-08-28T03:25:48.983Z,101489.48
2018-08-28T03:28:18.058Z,101496.77
2018-08-28T03:30:47.188Z,101491.99
2018-08-28T03:33:16.268Z,101492.70
2018-08-28T03:35:45.361Z,101497.81
2018-08-28T03:38:14.670Z,101499.23
2018-08-28T03:40:43.776Z,101501.59
2018-08-28T03:43:12.875Z,101501.59
2018-08-28T03:45:41.952Z,101503.55
2018-08-28T03:48:11.039Z,101505.42
2018-08-28T03:50:40.100Z,101509.03
2018-08-28T03:53:09.178Z,101514.52
2018-08-28T03:55:38.271Z,101516.47
2018-08-28T03:58:07.456Z,101517.59
2018-08-28T04:00:36.565Z,101514.98
2018-08-28T04:03:05.736Z,101514.60
2018-08-28T04:05:34.850Z,101515.64
2018-08-28T04:08:04.152Z,101518.84
2018-08-28T04:10:33.257Z,101519.70
2018-08-28T04:13:02.362Z,101516.34
2018-08-28T04:15:31.442Z,101518.13
2018-08-28T04:18:00.608Z,101517.45
2018-08-28T04:20:29.661Z,101520.66
2018-08-28T04:22:58.768Z,101518.00
2018-08-28T04:25:27.837Z,101511.36
2018-08-28T04:27:56.926Z,101521.27
2018-08-28T04:30:26.091Z,101518.54
2018-08-28T04:32:55.136Z,101519.57
2018-08-28T04:35:24.244Z,101521.36
2018-08-28T04:37:53.404Z,101524.47
2018-08-28T04:40:22.501Z,101524.97
2018-08-28T04:42:51.565Z,101527.45
2018-08-28T04:45:20.654Z,101530.03
2018-08-28T04:47:49.712Z,101534.59
2018-08-28T04:50:18.795Z,101536.30
2018-08-28T04:52:47.869Z,101535.50
2018-08-28T04:55:16.900Z,101539.91
2018-08-28T04:57:45.991Z,101537.41
2018-08-28T05:00:15.102Z,101541.92
2018-08-28T05:02:44.149Z,101550.36
2018-08-28T05:05:13.219Z,101550.81
2018-08-28T05:07:42.299Z,101545.42
2018-08-28T05:10:11.382Z,101545.43
2018-08-28T05:12:40.469Z,101553.27
2018-08-28T05:15:09.582Z,101555.26
2018-08-28T05:17:38.797Z,101552.68
2018-08-28T05:20:07.890Z,101552.27
2018-08-28T05:22:36.973Z,101555.80
2018-08-28T05:25:06.265Z,101563.69
2018-08-28T05:27:35.327Z,101563.73
2018-08-28T05:30:04.746Z,101567.01
2018-08-28T05:32:33.785Z,101567.55
2018-08-28T05:35:02.941Z,101569.66
2018-08-28T05:37:32.072Z,101569.59
2018-08-28T05:40:01.133Z,101571.94
2018-08-28T05:42:30.207Z,101572.94
2018-08-28T05:44:59.266Z,101574.77
2018-08-28T05:47:28.393Z,101573.27
2018-08-28T05:49:57.428Z,101580.67
2018-08-28T05:52:26.696Z,101581.09
2018-08-28T05:54:55.994Z,101579.02
2018-08-28T05:57:30.297Z,101580.61
2018-08-28T06:00:00.638Z,101582.57
2018-08-28T06:02:30.056Z,101587.73
2018-08-28T06:04:59.268Z,101585.30
2018-08-28T06:07:28.484Z,101583.41
2018-08-28T06:09:57.680Z,101585.98
2018-08-28T06:12:26.885Z,101592.47
2018-08-28T06:14:56.085Z,101594.05
2018-08-28T06:17:25.310Z,101598.25
2018-08-28T06:19:54.568Z,101601.16
2018-08-28T06:22:24.737Z,101603.09
2018-08-28T06:24:53.785Z,101606.91
2018-08-28T06:27:22.919Z,101608.88
2018-08-28T06:29:52.039Z,101612.23
2018-08-28T06:32:21.107Z,101609.34
2018-08-28T06:34:50.201Z,101604.56
2018-08-28T06:37:19.485Z,101614.41
2018-08-28T06:39:48.536Z,101610.05
2018-08-28T06:42:17.613Z,101620.23
2018-08-28T06:44:46.732Z,101619.65
2018-08-28T06:47:15.800Z,101622.55
2018-08-28T06:49:44.893Z,101620.20
2018-08-28T06:52:14.019Z,101622.81
2018-08-28T06:54:43.106Z,101620.77
2018-08-28T06:57:12.274Z,101621.64
2018-08-28T06:59:41.370Z,101623.72
2018-08-28T07:02:10.490Z,101625.38
2018-08-28T07:04:39.608Z,101623.30
2018-08-28T07:07:09.090Z,101623.55
2018-08-28T07:09:38.164Z,101626.89
2018-08-28T07:12:07.308Z,101629.92
2018-08-28T07:14:36.352Z,101630.55
2018-08-28T07:17:05.691Z,101635.88
2018-08-28T07:19:34.827Z,101635.53
2018-08-28T07:22:03.947Z,101635.35
2018-08-28T07:24:33.012Z,101630.80
2018-08-28T07:27:02.132Z,101637.52
2018-08-28T07:29:31.227Z,101636.75
2018-08-28T07:32:00.319Z,101641.35
2018-08-28T07:34:29.377Z,101639.55
2018-08-28T07:36:58.453Z,101641.84
2018-08-28T07:39:27.523Z,101636.53
2018-08-28T07:41:56.660Z,101639.41
2018-08-28T07:44:25.724Z,101642.36
2018-08-28T07:46:54.799Z,101642.22
2018-08-28T07:49:23.928Z,101646.90
2018-08-28T07:51:53.002Z,101647.27
2018-08-28T07:54:22.104Z,101644.05
2018-08-28T07:56:51.185Z,101648.17
2018-08-28T07:59:20.244Z,101644.84
2018-08-28T08:01:49.393Z,101647.88
2018-08-28T08:04:18.479Z,101650.27
2018-08-28T08:06:47.572Z,101656.00
2018-08-28T08:09:16.660Z,101646.94
2018-08-28T08:11:45.695Z,101657.14
2018-08-28T08:14:14.843Z,101664.14
2018-08-28T08:16:43.916Z,101654.98
2018-08-28T08:19:13.020Z,101666.14
2018-08-28T08:21:42.106Z,101661.66
2018-08-28T08:24:11.204Z,101652.39
2018-08-28T08:26:40.317Z,101662.22
2018-08-28T08:29:09.390Z,101659.08
2018-08-28T08:31:39.218Z,101659.95
2018-08-28T08:34:08.449Z,101659.16
2018-08-28T08:36:37.588Z,101661.23
2018-08-28T08:39:08.457Z,101662.57
2018-08-28T08:41:37.831Z,101664.81
2018-08-28T08:44:06.983Z,101666.50
2018-08-28T08:46:36.092Z,101655.39
2018-08-28T08:49:05.282Z,101651.63
2018-08-28T08:51:34.422Z,101648.72
2018-08-28T08:54:03.467Z,101652.47
2018-08-28T08:56:32.591Z,101653.69
2018-08-28T08:59:01.696Z,101656.09
2018-08-28T09:01:30.807Z,101655.09
2018-08-28T09:04:00.020Z,101649.52
2018-08-28T09:06:29.114Z,101649.52
2018-08-28T09:08:58.228Z,101648.98
2018-08-28T09:11:27.384Z,101645.22
2018-08-28T09:13:56.486Z,101647.32
2018-08-28T09:16:25.576Z,101643.45
2018-08-28T09:18:54.671Z,101642.50
2018-08-28T09:21:23.733Z,101634.06
2018-08-28T09:23:52.843Z,101633.62
2018-08-28T09:26:21.991Z,101633.99
2018-08-28T09:28:51.060Z,101626.11
2018-08-28T09:31:20.214Z,101617.59
2018-08-28T09:33:49.302Z,101620.48
2018-08-28T09:36:18.424Z,101620.59
2018-08-28T09:38:47.574Z,101615.52
2018-08-28T09:41:16.616Z,101620.34
2018-08-28T09:43:45.722Z,101621.73
2018-08-28T09:46:14.831Z,101608.34
2018-08-28T09:48:43.896Z,101611.73
2018-08-28T09:51:13.036Z,101616.16
2018-08-28T09:53:42.097Z,101622.86
2018-08-28T09:56:11.148Z,101621.71
2018-08-28T09:58:40.518Z,101622.63
2018-08-28T10:01:14.860Z,101619.20
2018-08-28T10:03:43.972Z,101616.92
2018-08-28T10:06:13.074Z,101612.13
2018-08-28T10:08:42.254Z,101609.73
2018-08-28T10:11:11.332Z,101610.13
2018-08-28T10:13:40.458Z,101595.20
2018-08-28T10:16:09.521Z,101604.59
2018-08-28T10:18:38.630Z,101606.26
2018-08-28T10:21:07.694Z,101603.38
2018-08-28T10:23:36.793Z,101608.91
2018-08-28T10:26:05.931Z,101598.69
2018-08-28T10:28:35.039Z,101597.94
2018-08-28T10:31:04.364Z,101589.64
2018-08-28T10:33:33.484Z,101588.27
2018-08-28T10:36:02.650Z,101592.53
2018-08-28T10:38:31.776Z,101600.70
2018-08-28T10:41:00.898Z,101588.54
2018-08-28T10:43:30.022Z,101576.91
2018-08-28T10:45:59.169Z,101585.00
2018-08-28T10:48:28.245Z,101578.05
2018-08-28T10:50:57.394Z,101575.72
2018-08-28T10:53:26.524Z,101579.92
2018-08-28T10:55:55.660Z,101575.97
2018-08-28T10:58:24.786Z,101583.05
2018-08-28T11:00:53.942Z,101580.38
2018-08-28T11:03:23.295Z,101573.17
2018-08-28T11:05:52.481Z,101572.66
2018-08-28T11:08:21.599Z,101574.50
2018-08-28T11:10:50.706Z,101580.40
2018-08-28T11:13:19.837Z,101579.05
2018-08-28T11:15:48.988Z,101572.80
2018-08-28T11:18:24.607Z,101567.06
2018-08-28T11:20:53.731Z,101570.84
2018-08-28T11:23:22.813Z,101560.71
2018-08-28T11:25:51.948Z,101559.20
2018-08-28T11:28:21.067Z,101568.61
2018-08-28T11:30:50.194Z,101569.57
2018-08-28T11:33:19.327Z,101569.73
2018-08-28T11:35:48.486Z,101574.77
2018-08-28T11:38:17.595Z,101572.55
2018-08-28T11:40:46.731Z,101561.83
2018-08-28T11:43:15.869Z,101560.20
2018-08-28T11:45:44.935Z,101564.22
2018-08-28T11:48:14.008Z,101552.80
2018-08-28T11:50:43.081Z,101557.62
2018-08-28T11:53:12.239Z,101556.84
2018-08-28T11:55:41.340Z,101559.83
2018-08-28T11:58:10.448Z,101558.97
2018-08-28T12:00:39.594Z,101561.91
2018-08-28T12:03:08.669Z,101554.45
2018-08-28T12:05:37.777Z,101563.61
2018-08-28T12:08:06.885Z,101562.83
2018-08-28T12:10:36.036Z,101554.20
2018-08-28T12:13:05.227Z,101558.49
2018-08-28T12:15:34.256Z,101553.62
2018-08-28T12:18:03.423Z,101557.74
2018-08-28T12:20:32.599Z,101556.75
2018-08-28T12:23:01.700Z,101552.88
2018-08-28T12:25:30.811Z,101546.89
2018-08-28T12:27:59.971Z,101546.14
2018-08-28T12:30:30.265Z,101549.15
2018-08-28T12:32:59.438Z,101552.61
2018-08-28T12:35:28.524Z,101549.59
2018-08-28T12:37:57.655Z,101538.68
2018-08-28T12:40:26.770Z,101538.31
2018-08-28T12:42:55.859Z,101530.02
2018-08-28T12:45:24.934Z,101525.36
2018-08-28T12:47:54.033Z,101520.83
2018-08-28T12:50:23.130Z,101524.41
2018-08-28T12:52:52.193Z,101509.77
2018-08-28T12:55:21.279Z,101513.84
2018-08-28T12:57:50.493Z,101506.86
2018-08-28T13:00:19.575Z,101500.17
2018-08-28T13:02:48.633Z,101495.09
2018-08-28T13:05:17.783Z,101491.97
2018-08-28T13:07:46.892Z,101486.66
2018-08-28T13:10:16.007Z,101489.58
2018-08-28T13:12:45.088Z,101487.76
2018-08-28T13:15:14.232Z,101485.78
2018-08-28T13:17:43.327Z,101484.80
2018-08-28T13:20:12.427Z,101476.39
2018-08-28T13:22:41.504Z,101480.29
2018-08-28T13:25:11.090Z,101479.83
2018-08-28T13:27:40.084Z,101474.17
2018-08-28T13:30:09.250Z,101464.69
2018-08-28T13:32:38.401Z,101467.33
2018-08-28T13:35:07.401Z,101462.23
2018-08-28T13:37:36.490Z,101452.22
2018-08-28T13:40:07.577Z,101456.28
2018-08-28T13:42:36.686Z,101454.95
2018-08-28T13:45:05.791Z,101451.66
2018-08-28T13:47:34.992Z,101454.56
2018-08-28T13:50:04.164Z,101456.22
2018-08-28T13:52:33.225Z,101443.58
2018-08-28T13:55:02.329Z,101442.83
2018-08-28T13:57:31.394Z,101444.59
2018-08-28T14:00:00.476Z,101441.38
2018-08-28T14:02:29.571Z,101436.08
2018-08-28T14:04:58.658Z,101434.59
2018-08-28T14:07:27.764Z,101434.81
2018-08-28T14:09:57.016Z,101442.59
2018-08-28T14:12:26.116Z,101440.91
2018-08-28T14:14:55.232Z,101440.47
2018-08-28T14:17:24.403Z,101433.53
2018-08-28T14:19:53.809Z,101429.31
2018-08-28T14:22:22.996Z,101433.81
2018-08-28T14:24:52.118Z,101428.09
2018-08-28T14:27:21.272Z,101428.12
2018-08-28T14:29:50.360Z,101420.63
2018-08-28T14:32:19.411Z,101416.55
2018-08-28T14:34:48.518Z,101419.63
2018-08-28T14:37:17.620Z,101412.84
2018-08-28T14:39:46.744Z,101408.05
2018-08-28T14:42:15.860Z,101409.42
2018-08-28T14:44:44.953Z,101400.49
2018-08-28T14:47:14.052Z,101398.52
2018-08-28T14:49:43.162Z,101392.47
2018-08-28T14:52:12.449Z,101389.65
2018-08-28T14:54:41.542Z,101386.77
2018-08-28T14:57:10.628Z,101379.93
2018-08-28T14:59:39.679Z,101377.17
2018-08-28T15:02:08.750Z,101381.94
2018-08-28T15:04:37.816Z,101377.03
2018-08-28T15:07:07.132Z,101379.16
2018-08-28T15:09:36.070Z,101365.55
2018-08-28T15:12:06.041Z,101364.54
2018-08-28T15:14:35.157Z,101357.75
2018-08-28T15:17:04.308Z,101361.70
2018-08-28T15:19:33.420Z,101362.55
2018-08-28T15:22:02.544Z,101355.17
2018-08-28T15:24:31.612Z,101356.22
2018-08-28T15:27:00.796Z,101351.91
2018-08-28T15:29:29.854Z,101348.38
2018-08-28T15:31:58.970Z,101350.03
2018-08-28T15:34:28.125Z,101355.08
2018-08-28T15:36:57.274Z,101350.91
2018-08-28T15:39:26.360Z,101349.86
2018-08-28T15:41:55.472Z,101350.98
2018-08-28T15:44:24.568Z,101347.38
2018-08-28T15:46:53.722Z,101349.37
2018-08-28T15:49:22.854Z,101343.14
2018-08-28T15:51:51.988Z,101347.08
2018-08-28T15:54:21.085Z,101347.04
2018-08-28T15:56:50.165Z,101342.23
2018-08-28T15:59:25.705Z,101336.84
2018-08-28T16:01:54.801Z,101338.52
2018-08-28T16:04:23.854Z,101333.61
2018-08-28T16:06:53.227Z,101335.53
2018-08-28T16:09:22.325Z,101330.99
2018-08-28T16:11:51.410Z,101328.15
2018-08-28T16:14:20.560Z,101324.81
2018-08-28T16:16:49.651Z,101322.55
2018-08-28T16:19:18.758Z,101321.40
2018-08-28T16:21:52.945Z,101315.96
2018-08-28T16:24:22.589Z,101318.75
2018-08-28T16:26:52.069Z,101317.13
2018-08-28T16:29:21.162Z,101306.52
2018-08-28T16:31:50.261Z,101301.93
2018-08-28T16:34:19.355Z,101295.48
2018-08-28T16:36:48.476Z,101295.82
2018-08-28T16:39:17.538Z,101294.81
2018-08-28T16:41:46.643Z,101285.52
2018-08-28T16:44:15.722Z,101283.83
2018-08-28T16:46:44.853Z,101283.98
2018-08-28T16:49:13.906Z,101280.52
2018-08-28T16:51:43.022Z,101278.41
2018-08-28T16:54:12.067Z,101272.07
2018-08-28T16:56:41.185Z,101270.34
2018-08-28T16:59:10.296Z,101263.90
2018-08-28T17:01:39.528Z,101268.43
2018-08-28T17:04:08.464Z,101263.90
2018-08-28T17:06:37.581Z,101259.66
2018-08-28T17:09:07.137Z,101256.87
2018-08-28T17:11:36.251Z,101249.03
2018-08-28T17:14:05.329Z,101247.12
2018-08-28T17:16:34.416Z,101243.66
2018-08-28T17:19:03.595Z,101239.70
2018-08-28T17:21:32.653Z,101241.54
2018-08-28T17:24:01.774Z,101234.38
2018-08-28T17:26:30.955Z,101236.16
2018-08-28T17:29:00.029Z,101237.73
2018-08-28T17:31:29.156Z,101237.15
2018-08-28T17:33:58.257Z,101233.87
2018-08-28T17:36:27.321Z,101235.77
2018-08-28T17:38:56.387Z,101225.08
2018-08-28T17:41:25.451Z,101222.63
2018-08-28T17:43:54.550Z,101225.47
2018-08-28T17:46:29.936Z,101232.28
2018-08-28T17:48:59.124Z,101236.73
2018-08-28T17:51:28.174Z,101235.44
2018-08-28T17:53:57.323Z,101232.82
2018-08-28T17:56:26.371Z,101237.77
2018-08-28T17:58:55.478Z,101233.80
2018-08-28T18:01:24.647Z,101227.91
2018-08-28T18:03:53.892Z,101226.87
2018-08-28T18:06:23.687Z,101232.47
2018-08-28T18:08:53.786Z,101225.16
2018-08-28T18:11:23.344Z,101228.18
2018-08-28T18:13:52.953Z,101230.69
2018-08-28T18:16:22.450Z,101233.68
2018-08-28T18:18:51.696Z,101233.13
2018-08-28T18:21:21.534Z,101233.42
2018-08-28T18:23:51.986Z,101225.27
2018-08-28T18:26:22.359Z,101223.95
2018-08-28T18:28:53.140Z,101219.59
2018-08-28T18:31:22.895Z,101222.95
2018-08-28T18:33:53.521Z,101224.45
2018-08-28T18:36:23.204Z,101217.39
2018-08-28T18:38:53.196Z,101222.91
2018-08-28T18:41:22.498Z,101214.99
2018-08-28T18:43:51.627Z,101216.38
2018-08-28T18:46:20.898Z,101216.05
2018-08-28T18:48:50.118Z,101216.44
2018-08-28T18:51:19.256Z,101217.78
2018-08-28T18:53:48.400Z,101222.69
2018-08-28T18:56:17.630Z,101221.86
2018-08-28T18:58:47.282Z,101223.25
2018-08-28T19:01:16.691Z,101217.63
2018-08-28T19:03:45.992Z,101216.19
2018-08-28T19:06:16.271Z,101215.84
2018-08-28T19:08:46.431Z,101218.05
2018-08-28T19:11:16.347Z,101218.95
2018-08-28T19:13:46.295Z,101213.45
2018-08-28T19:16:15.972Z,101220.03
2018-08-28T19:18:45.986Z,101220.90
2018-08-28T19:21:15.924Z,101217.38
2018-08-28T19:23:45.060Z,101222.02
2018-08-28T19:26:14.197Z,101214.47
2018-08-28T19:28:43.297Z,101223.37
2018-08-28T19:31:12.389Z,101219.61
2018-08-28T19:33:41.539Z,101220.85
2018-08-28T19:36:10.631Z,101218.55
2018-08-28T19:38:39.827Z,101221.95
2018-08-28T19:41:08.941Z,101217.20
2018-08-28T19:43:38.200Z,101218.79
2018-08-28T19:46:07.302Z,101212.94
2018-08-28T19:48:36.470Z,101214.53
2018-08-28T19:51:05.527Z,101207.47
2018-08-28T19:53:34.676Z,101205.99
2018-08-28T19:56:03.798Z,101207.59
2018-08-28T19:58:32.959Z,101203.56
2018-08-28T20:01:02.199Z,101209.78
2018-08-28T20:03:31.401Z,101202.72
2018-08-28T20:06:00.517Z,101197.60
2018-08-28T20:08:29.622Z,101194.43
2018-08-28T20:10:58.688Z,101190.15
2018-08-28T20:13:27.826Z,101197.81
2018-08-28T20:15:56.930Z,101191.75
2018-08-28T20:18:26.017Z,101195.03
2018-08-28T20:20:55.272Z,101198.55
2018-08-28T20:23:24.270Z,101197.45
2018-08-28T20:25:53.377Z,101194.42
2018-08-28T20:28:22.498Z,101187.11
2018-08-28T20:30:51.593Z,101183.95
2018-08-28T20:33:20.710Z,101183.34
2018-08-28T20:35:49.854Z,101186.37
2018-08-28T20:38:18.944Z,101181.39
2018-08-28T20:40:48.032Z,101181.86
2018-08-28T20:43:17.144Z,101181.96
2018-08-28T20:45:46.215Z,101177.47
2018-08-28T20:48:15.333Z,101174.05
2018-08-28T20:50:44.456Z,101175.28
2018-08-28T20:53:13.505Z,101170.52
2018-08-28T20:55:42.631Z,101174.27
2018-08-28T20:58:11.744Z,101172.34
2018-08-28T21:00:40.868Z,101164.55
2018-08-28T21:03:09.946Z,101152.00
2018-08-28T21:05:39.019Z,101158.66
2018-08-28T21:08:08.211Z,101150.03
2018-08-28T21:10:37.306Z,101150.36
2018-08-28T21:13:06.452Z,101151.70
2018-08-28T21:15:35.560Z,101144.14
2018-08-28T21:18:04.670Z,101140.96
2018-08-28T21:20:33.726Z,101146.20
2018-08-28T21:23:02.992Z,101137.42
2018-08-28T21:25:32.005Z,101141.32
2018-08-28T21:28:01.224Z,101135.45
2018-08-28T21:30:30.316Z,101134.59
2018-08-28T21:32:59.421Z,101129.36
2018-08-28T21:35:28.531Z,101129.24
2018-08-28T21:37:57.617Z,101119.25
2018-08-28T21:40:26.709Z,101125.31
2018-08-28T21:42:55.825Z,101124.21
2018-08-28T21:45:24.889Z,101122.01
2018-08-28T21:47:53.959Z,101120.79
2018-08-28T21:50:23.034Z,101121.41
2018-08-28T21:52:52.164Z,101121.02
2018-08-28T21:55:21.249Z,101119.45
2018-08-28T21:57:50.413Z,101115.78
2018-08-28T22:00:19.529Z,101115.04
2018-08-28T22:02:48.603Z,101122.20
2018-08-28T22:05:17.745Z,101127.06
2018-08-28T22:07:46.908Z,101117.94
2018-08-28T22:10:16.053Z,101116.44
2018-08-28T22:12:45.138Z,101111.80
2018-08-28T22:15:14.392Z,101115.33
2018-08-28T22:17:43.574Z,101113.83
2018-08-28T22:20:12.686Z,101114.53
2018-08-28T22:22:41.793Z,101117.83
2018-08-28T22:25:10.932Z,101118.50
2018-08-28T22:27:40.029Z,101114.59
2018-08-28T22:30:09.884Z,101121.04
2018-08-28T22:32:39.611Z,101117.61
2018-08-28T22:35:08.848Z,101113.84
2018-08-28T22:37:37.956Z,101110.05
2018-08-28T22:40:09.385Z,101111.63
2018-08-28T22:42:38.522Z,101108.31
2018-08-28T22:45:07.626Z,101109.64
2018-08-28T22:47:36.754Z,101110.23
2018-08-28T22:50:06.535Z,101114.58
2018-08-28T22:52:35.623Z,101106.67
2018-08-28T22:55:04.811Z,101105.09
2018-08-28T22:57:33.920Z,101106.66
2018-08-28T23:00:03.007Z,101100.67
2018-08-28T23:02:32.067Z,101111.70
2018-08-28T23:05:01.199Z,101099.91
2018-08-28T23:07:30.224Z,101106.80
2018-08-28T23:09:59.332Z,101102.05
2018-08-28T23:12:28.432Z,101097.56
2018-08-28T23:14:57.458Z,101097.79
2018-08-28T23:17:26.532Z,101096.76
2018-08-28T23:19:55.624Z,101090.92
2018-08-28T23:22:24.718Z,101088.19
2018-08-28T23:24:53.828Z,101091.48
2018-08-28T23:27:22.962Z,101090.44
2018-08-28T23:29:52.044Z,101084.96
2018-08-28T23:32:21.109Z,101078.86
2018-08-28T23:34:50.174Z,101074.86
2018-08-28T23:37:19.304Z,101075.19
2018-08-28T23:39:48.397Z,101076.17
2018-08-28T23:42:17.476Z,101077.11
2018-08-28T23:44:46.553Z,101073.72
2018-08-28T23:47:15.641Z,101075.35
2018-08-28T23:49:44.716Z,101071.56
2018-08-28T23:52:13.881Z,101069.11
2018-08-28T23:54:42.935Z,101071.39
2018-08-28T23:57:12.000Z,101071.61
2018-08-28T23:59:41.140Z,101073.27
